Time;durP1;ratioP1;P1;durP2;ratioP2;P2;SDS_P1;SDS_P2;PMS_P1;PMS_P2;Temp;Humidity;BMP_temperature;BMP_pressure;BME280_temperature;BME280_humidity;BME280_pressure;Samples;Min_cycle;Max_cycle;Signal;HPM_P1;HPM_P2
2022/12/07 00:02:06;;;;;;;;;;;;;;;21.83;39.62;102094.41;7250740;19;153241;-54
2022/12/07 00:04:34;;;;;;;;;;;;;;;21.83;39.96;102088.78;7251596;19;154253;-53
2022/12/07 00:07:01;;;;;;;;;;;;;;;21.82;39.68;102087.09;7250457;19;152299;-54
2022/12/07 00:09:28;;;;;;;;;;;;;;;21.82;39.70;102087.94;7253019;19;154453;-53
2022/12/07 00:11:54;;;;;;;;;;;;;;;21.82;39.50;102085.13;7250361;19;153979;-53
2022/12/07 00:14:21;;;;;;;;;;;;;;;21.84;39.65;102093.28;7256325;19;153499;-53
2022/12/07 00:16:49;;;;;;;;;;;;;;;21.84;39.34;102087.66;7250070;19;154607;-53
2022/12/07 00:19:16;;;;;;;;;;;;;;;21.83;39.66;102086.81;7253111;19;152881;-53
2022/12/07 00:21:43;;;;;;;;;;;;;;;21.84;39.51;102082.03;7251050;19;154106;-53
2022/12/07 00:24:10;;;;;;;;;;;;;;;21.85;39.32;102092.97;7248282;19;152471;-53
2022/12/07 00:26:38;;;;;;;;;;;;;;;21.86;39.49;102085.38;7251830;19;152680;-53
2022/12/07 00:29:09;;;;;;;;;;;;;;;21.85;39.49;102089.34;7251809;19;154187;-53
2022/12/07 00:31:38;;;;;;;;;;;;;;;21.84;39.76;102096.09;7265172;19;153481;-53
2022/12/07 00:34:06;;;;;;;;;;;;;;;21.83;39.46;102094.41;7251375;19;153347;-52
2022/12/07 00:36:33;;;;;;;;;;;;;;;21.81;39.26;102100.31;7255987;19;154384;-52
2022/12/07 00:39:00;;;;;;;;;;;;;;;21.82;39.43;102101.16;7251851;19;153352;-52
2022/12/07 00:41:27;;;;;;;;;;;;;;;21.81;39.41;102097.50;7252458;19;152655;-54
2022/12/07 00:43:55;;;;;;;;;;;;;;;21.80;39.59;102095.84;7247521;19;154620;-52
2022/12/07 00:46:22;;;;;;;;;;;;;;;21.79;39.44;102094.16;7251627;19;153628;-52
2022/12/07 00:48:49;;;;;;;;;;;;;;;21.78;39.35;102085.97;7250755;19;153572;-52
2022/12/07 00:51:16;;;;;;;;;;;;;;;21.78;39.75;102091.63;7248945;19;154130;-52
2022/12/07 00:53:43;;;;;;;;;;;;;;;21.72;39.86;102083.19;7246157;19;155683;-53
2022/12/07 00:56:28;;;;;;;;;;;;;;;21.70;40.01;102090.25;7250088;19;152173;-52
2022/12/07 00:58:59;;;;;;;;;;;;;;;21.64;40.24;102080.16;7256180;19;153219;-53
2022/12/07 01:01:27;;;;;;;;;;;;;;;21.61;40.37;102081.56;7250848;19;153102;-54
2022/12/07 01:03:54;;;;;;;;;;;;;;;21.58;40.33;102084.94;7248329;19;154716;-53
2022/12/07 01:06:22;;;;;;;;;;;;;;;21.55;40.58;102082.72;7252774;19;153287;-53
2022/12/07 01:08:49;;;;;;;;;;;;;;;21.54;40.47;102080.19;7249783;19;153652;-52
2022/12/07 01:11:17;;;;;;;;;;;;;;;21.52;40.61;102082.47;7247277;19;154111;-53
2022/12/07 01:13:44;;;;;;;;;;;;;;;21.49;40.36;102083.84;7246077;19;154383;-52
2022/12/07 01:16:13;;;;;;;;;;;;;;;21.46;40.42;102076.00;7246347;19;153123;-52
2022/12/07 01:18:40;;;;;;;;;;;;;;;21.45;40.83;102073.47;7247347;19;153099;-52
2022/12/07 01:21:08;;;;;;;;;;;;;;;21.43;40.45;102065.34;7255837;19;153339;-52
2022/12/07 01:23:35;;;;;;;;;;;;;;;21.41;40.84;102073.22;7247700;19;154088;-52
2022/12/07 01:26:03;;;;;;;;;;;;;;;21.40;40.61;102068.72;7248659;19;154465;-53
2022/12/07 01:28:30;;;;;;;;;;;;;;;21.35;41.03;102068.72;7250668;19;152755;-52
2022/12/07 01:31:05;;;;;;;;;;;;;;;21.36;40.64;102066.75;7246895;19;154031;-52
2022/12/07 01:33:33;;;;;;;;;;;;;;;21.30;40.74;102072.41;7248755;19;152010;-52
2022/12/07 01:36:00;;;;;;;;;;;;;;;21.29;41.08;102069.91;7250122;19;153252;-52
2022/12/07 01:38:27;;;;;;;;;;;;;;;21.29;41.29;102067.09;7246761;19;154450;-52
2022/12/07 01:40:55;;;;;;;;;;;;;;;21.24;41.01;102064.28;7250686;19;153958;-53
2022/12/07 01:43:23;;;;;;;;;;;;;;;21.19;41.21;102072.72;7253068;19;152802;-52
2022/12/07 01:45:50;;;;;;;;;;;;;;;21.17;40.99;102070.19;7246835;19;152606;-52
2022/12/07 01:48:18;;;;;;;;;;;;;;;21.17;40.85;102066.53;7249186;19;153342;-52
2022/12/07 01:50:47;;;;;;;;;;;;;;;21.14;40.81;102070.78;7246869;19;153085;-52
2022/12/07 01:53:14;;;;;;;;;;;;;;;21.09;41.19;102069.91;7248641;19;152481;-52
2022/12/07 01:55:43;;;;;;;;;;;;;;;21.07;41.02;102070.22;7247075;19;152816;-53
2022/12/07 01:58:11;;;;;;;;;;;;;;;21.03;40.89;102076.69;7245699;19;154043;-52
2022/12/07 02:00:37;;;;;;;;;;;;;;;21.01;40.77;102071.34;7247491;19;153041;-52
2022/12/07 02:03:18;;;;;;;;;;;;;;;20.97;41.24;102072.19;7245325;19;153450;-52
2022/12/07 02:05:46;;;;;;;;;;;;;;;20.92;41.24;102066.59;7254766;19;153818;-53
2022/12/07 02:08:13;;;;;;;;;;;;;;;20.94;41.15;102064.34;7247327;19;152785;-52
2022/12/07 02:10:40;;;;;;;;;;;;;;;20.93;41.41;102077.53;7246218;19;153353;-52
2022/12/07 02:13:09;;;;;;;;;;;;;;;20.94;41.19;102073.59;7247548;19;154757;-55
2022/12/07 02:15:39;;;;;;;;;;;;;;;20.90;40.98;102069.66;7248118;19;154048;-53
2022/12/07 02:18:15;;;;;;;;;;;;;;;20.87;41.32;102061.81;7247257;19;154472;-53
2022/12/07 02:20:41;;;;;;;;;;;;;;;20.85;41.00;102061.25;7247487;19;153066;-52
2022/12/07 02:23:23;;;;;;;;;;;;;;;20.81;41.11;102066.59;7244564;19;152589;-53
2022/12/07 02:31:31;;;;;;;;;;;;;;;20.76;41.05;102068.56;7238779;19;154011;-53
2022/12/07 02:34:07;;;;;;;;;;;;;;;20.72;41.50;102071.09;7250408;19;154056;-53
2022/12/07 02:36:40;;;;;;;;;;;;;;;20.70;41.55;102070.56;7247480;19;154154;-52
2022/12/07 02:39:11;;;;;;;;;;;;;;;20.68;41.21;102071.94;7249117;19;153414;-53
2022/12/07 02:41:42;;;;;;;;;;;;;;;20.63;41.21;102066.31;7250805;19;154342;-53
2022/12/07 02:44:20;;;;;;;;;;;;;;;20.59;41.59;102073.63;7248451;19;153305;-53
2022/12/07 02:46:50;;;;;;;;;;;;;;;20.60;41.79;102056.50;7250777;19;153558;-53
2022/12/07 02:49:18;;;;;;;;;;;;;;;20.59;41.81;102060.44;7258320;19;152784;-53
2022/12/07 02:51:45;;;;;;;;;;;;;;;20.56;41.49;102057.34;7216773;19;156045;-52
2022/12/07 02:54:14;;;;;;;;;;;;;;;20.54;41.49;102065.22;7243227;19;153787;-52
2022/12/07 02:56:43;;;;;;;;;;;;;;;20.52;41.70;102057.09;7246961;19;153179;-52
2022/12/07 02:59:12;;;;;;;;;;;;;;;20.50;41.54;102059.31;7239818;19;152604;-53
2022/12/07 03:01:58;;;;;;;;;;;;;;;20.48;41.98;102061.59;7245026;19;152133;-52
2022/12/07 03:04:24;;;;;;;;;;;;;;;20.47;41.96;102057.09;7247006;19;152483;-52
2022/12/07 03:06:56;;;;;;;;;;;;;;;20.53;41.85;102060.75;7241120;19;154407;-52
2022/12/07 03:09:52;;;;;;;;;;;;;;;20.59;41.96;102045.56;7246009;19;152880;-53
2022/12/07 03:12:21;;;;;;;;;;;;;;;20.59;42.00;102053.97;7248589;19;153820;-52
2022/12/07 03:14:52;;;;;;;;;;;;;;;20.58;42.21;102047.50;7245155;19;154604;-52
2022/12/07 03:17:26;;;;;;;;;;;;;;;20.55;42.08;102044.44;7246450;19;153366;-53
2022/12/07 03:19:57;;;;;;;;;;;;;;;20.55;41.86;102042.47;7246160;19;154261;-52
2022/12/07 03:22:30;;;;;;;;;;;;;;;20.49;42.04;102037.16;7242494;19;153942;-52
2022/12/07 03:24:58;;;;;;;;;;;;;;;20.41;41.85;102041.34;7248687;19;153038;-53
2022/12/07 03:27:28;;;;;;;;;;;;;;;20.37;42.40;102035.47;7243615;19;155769;-53
2022/12/07 03:30:04;;;;;;;;;;;;;;;20.38;41.75;102034.34;7247026;19;152808;-53
2022/12/07 03:32:37;;;;;;;;;;;;;;;20.31;42.06;102033.78;7245113;19;153937;-53
2022/12/07 03:35:03;;;;;;;;;;;;;;;20.29;42.15;102037.97;7252582;19;153417;-54
2022/12/07 03:37:36;;;;;;;;;;;;;;;20.25;41.96;102032.06;7244880;19;153885;-52
2022/12/07 03:40:16;;;;;;;;;;;;;;;20.25;41.75;102032.06;7246355;19;154166;-52
2022/12/07 03:42:43;;;;;;;;;;;;;;;20.23;41.82;102027.84;7244229;19;152595;-52
2022/12/07 03:45:10;;;;;;;;;;;;;;;20.19;42.19;102021.97;7245509;19;154082;-53
2022/12/07 03:47:50;;;;;;;;;;;;;;;20.17;42.13;102023.38;7240771;19;153692;-53
2022/12/07 03:50:25;;;;;;;;;;;;;;;20.16;41.97;102024.50;7245697;19;152767;-53
2022/12/07 03:52:55;;;;;;;;;;;;;;;20.12;41.99;102023.38;7250347;19;153553;-52
2022/12/07 03:55:24;;;;;;;;;;;;;;;20.10;42.13;102017.19;7248898;19;154775;-53
2022/12/07 03:57:54;;;;;;;;;;;;;;;20.09;42.30;102018.31;7253125;19;152963;-53
2022/12/07 04:00:21;;;;;;;;;;;;;;;20.06;42.29;102018.88;7244276;19;152788;-52
2022/12/07 04:02:50;;;;;;;;;;;;;;;20.04;42.10;102026.72;7244331;19;152456;-52
2022/12/07 04:05:17;;;;;;;;;;;;;;;20.01;42.38;102028.13;7246348;19;153435;-53
2022/12/07 04:07:44;;;;;;;;;;;;;;;20.02;42.55;102031.78;7241432;19;154285;-52
2022/12/07 04:10:11;;;;;;;;;;;;;;;19.98;42.54;102026.72;7248609;19;153963;-53
2022/12/07 04:12:37;;;;;;;;;;;;;;;19.95;42.27;102032.88;7251040;19;155239;-53
2022/12/07 04:15:04;;;;;;;;;;;;;;;19.92;42.56;102025.03;7251263;19;153950;-53
2022/12/07 04:17:31;;;;;;;;;;;;;;;19.92;42.68;102025.03;7259334;19;152981;-54
2022/12/07 04:19:57;;;;;;;;;;;;;;;19.90;42.43;102029.22;7251330;19;154314;-51
2022/12/07 04:22:27;;;;;;;;;;;;;;;19.88;42.60;102025.84;7246900;19;153745;-52
2022/12/07 04:24:54;;;;;;;;;;;;;;;19.88;42.66;102028.66;7250997;19;153030;-53
2022/12/07 04:27:20;;;;;;;;;;;;;;;19.83;42.31;102029.50;7249570;19;153667;-52
2022/12/07 04:29:47;;;;;;;;;;;;;;;19.82;42.53;102027.81;7252397;19;154130;-52
2022/12/07 04:32:14;;;;;;;;;;;;;;;19.81;42.41;102030.88;7250476;19;156322;-52
2022/12/07 04:34:40;;;;;;;;;;;;;;;19.78;42.33;102031.44;7249611;19;155147;-53
2022/12/07 04:37:10;;;;;;;;;;;;;;;19.75;42.51;102030.03;7248930;19;153812;-53
2022/12/07 04:39:41;;;;;;;;;;;;;;;19.75;42.31;102032.00;7257848;19;154507;-53
2022/12/07 04:42:08;;;;;;;;;;;;;;;19.72;42.63;102024.13;7251509;19;152886;-52
2022/12/07 04:44:35;;;;;;;;;;;;;;;19.71;42.70;102028.91;7249376;19;153074;-53
2022/12/07 04:47:01;;;;;;;;;;;;;;;19.69;42.65;102025.53;7249601;19;154368;-53
2022/12/07 04:49:28;;;;;;;;;;;;;;;19.68;42.43;102028.59;7249046;19;153511;-52
2022/12/07 04:51:55;;;;;;;;;;;;;;;19.66;42.70;102028.06;7246817;19;153877;-53
2022/12/07 04:54:21;;;;;;;;;;;;;;;19.64;42.55;102030.28;7252048;19;153874;-53
2022/12/07 04:56:48;;;;;;;;;;;;;;;19.60;43.00;102021.59;7245015;19;153180;-53
2022/12/07 04:59:15;;;;;;;;;;;;;;;19.58;42.63;102012.59;7251075;19;154243;-53
2022/12/07 05:01:43;;;;;;;;;;;;;;;19.57;43.07;102027.75;7256091;19;153841;-53
2022/12/07 05:04:09;;;;;;;;;;;;;;;19.56;42.84;102030.81;7248056;19;153072;-53
2022/12/07 05:06:36;;;;;;;;;;;;;;;19.55;43.26;102029.97;7244225;19;153459;-52
2022/12/07 05:09:03;;;;;;;;;;;;;;;19.53;43.35;102027.44;7252635;19;153083;-52
2022/12/07 05:11:39;;;;;;;;;;;;;;;19.52;43.00;102027.72;7252523;19;153830;-53
2022/12/07 05:14:06;;;;;;;;;;;;;;;19.50;43.19;102028.00;7244279;19;154110;-53
2022/12/07 05:16:32;;;;;;;;;;;;;;;19.48;43.34;102018.19;7248750;19;152038;-52
2022/12/07 05:18:59;;;;;;;;;;;;;;;19.48;43.19;102012.59;7247251;19;154523;-52
2022/12/07 05:21:26;;;;;;;;;;;;;;;19.46;43.69;102018.47;7245118;19;153994;-52
2022/12/07 05:23:52;;;;;;;;;;;;;;;19.47;43.52;102013.69;7256186;19;153899;-52
2022/12/07 05:26:19;;;;;;;;;;;;;;;19.52;43.92;102000.56;7249561;19;154310;-53
2022/12/07 05:28:49;;;;;;;;;;;;;;;19.56;44.09;102009.25;7248686;19;152183;-52
2022/12/07 05:31:16;;;;;;;;;;;;;;;19.59;44.53;101999.44;7250974;19;154682;-52
2022/12/07 05:33:43;;;;;;;;;;;;;;;19.61;44.51;102005.59;7246157;19;154792;-53
2022/12/07 05:36:09;;;;;;;;;;;;;;;19.61;44.93;102003.66;7245347;19;152875;-53
2022/12/07 05:38:36;;;;;;;;;;;;;;;19.64;45.49;102013.47;7249867;19;154083;-52
2022/12/07 05:41:03;;;;;;;;;;;;;;;19.65;45.99;102013.19;7247383;19;154421;-52
2022/12/07 05:43:30;;;;;;;;;;;;;;;19.68;46.24;102011.78;7249397;19;153025;-52
2022/12/07 05:45:57;;;;;;;;;;;;;;;19.71;46.10;102009.28;7259313;19;153713;-52
2022/12/07 05:48:24;;;;;;;;;;;;;;;19.75;46.39;102015.19;7249553;19;152475;-52
2022/12/07 05:50:51;;;;;;;;;;;;;;;19.77;46.29;102007.31;7246255;19;153472;-52
2022/12/07 05:53:18;;;;;;;;;;;;;;;19.81;46.23;102008.44;7248623;19;153097;-52
2022/12/07 05:55:48;;;;;;;;;;;;;;;19.84;46.40;101996.69;7249529;19;152693;-52
2022/12/07 06:01:00;;;;;;;;;;;;;;;19.94;46.56;101993.91;7247999;19;154674;-52
2022/12/07 06:03:27;;;;;;;;;;;;;;;19.98;46.74;101998.69;7247218;19;152081;-53
2022/12/07 06:05:54;;;;;;;;;;;;;;;20.03;46.15;101999.81;7246456;19;153115;-53
2022/12/07 06:08:21;;;;;;;;;;;;;;;20.08;46.21;102002.63;7255859;19;154481;-52
2022/12/07 06:12:33;;;;;;;;;;;;;;;20.12;46.27;102000.94;7245935;19;153736;-57
2022/12/07 06:13:34;;;;;;;;;;;;;;;20.17;45.78;101998.13;7248547;19;154227;-52
2022/12/07 06:16:01;;;;;;;;;;;;;;;20.21;45.85;101997.28;7247583;19;153992;-53
2022/12/07 06:18:28;;;;;;;;;;;;;;;20.27;45.61;102003.72;7249248;19;153324;-52
2022/12/07 06:20:54;;;;;;;;;;;;;;;20.30;45.42;101998.44;7244933;19;154510;-53
2022/12/07 06:23:21;;;;;;;;;;;;;;;20.36;45.51;102002.06;7248720;19;152133;-52
2022/12/07 06:25:48;;;;;;;;;;;;;;;20.39;45.78;101999.56;7247864;19;153220;-51
2022/12/07 06:28:14;;;;;;;;;;;;;;;20.44;45.52;102001.50;7256460;19;154768;-52
2022/12/07 06:30:41;;;;;;;;;;;;;;;20.49;45.31;102003.47;7246648;19;152269;-53
2022/12/07 06:33:07;;;;;;;;;;;;;;;20.53;45.55;102007.41;7244935;19;154083;-54
2022/12/07 06:35:34;;;;;;;;;;;;;;;20.57;45.45;102006.53;7245738;19;154473;-54
2022/12/07 06:38:01;;;;;;;;;;;;;;;20.62;45.20;102008.50;7247194;19;152667;-55
2022/12/07 06:40:27;;;;;;;;;;;;;;;20.66;44.94;102013.28;7246605;19;154298;-52
2022/12/07 06:42:54;;;;;;;;;;;;;;;20.70;45.13;102005.13;7247572;19;152042;-52
2022/12/07 06:45:21;;;;;;;;;;;;;;;20.74;45.13;102017.47;7244579;19;152859;-53
2022/12/07 06:47:47;;;;;;;;;;;;;;;20.77;44.51;102017.72;7245719;19;154119;-53
2022/12/07 06:50:14;;;;;;;;;;;;;;;20.81;44.69;102020.81;7255336;19;152372;-52
2022/12/07 06:52:41;;;;;;;;;;;;;;;20.85;44.60;102021.91;7240767;19;153130;-52
2022/12/07 06:55:07;;;;;;;;;;;;;;;20.89;44.57;102023.06;7248710;19;152033;-52
2022/12/07 06:57:34;;;;;;;;;;;;;;;20.94;44.08;102025.81;7246907;19;152743;-53
2022/12/07 07:00:01;;;;;;;;;;;;;;;20.97;43.97;102025.28;7247171;19;154152;-54
2022/12/07 07:02:36;;;;;;;;;;;;;;;21.01;43.91;102026.38;7246216;19;152757;-53
2022/12/07 07:05:21;;;;;;;;;;;;;;;21.07;44.03;102030.03;7245216;19;155753;-52
2022/12/07 07:07:51;;;;;;;;;;;;;;;21.09;43.86;102022.13;7240648;19;155315;-52
2022/12/07 07:10:37;;;;;;;;;;;;;;;21.15;44.61;102032.28;7245442;19;154320;-52
2022/12/07 07:13:04;;;;;;;;;;;;;;;21.18;44.20;102029.72;7250622;19;153523;-52
2022/12/07 07:15:31;;;;;;;;;;;;;;;21.22;44.52;102025.22;7246964;19;152817;-52
2022/12/07 07:17:58;;;;;;;;;;;;;;;21.27;44.09;102027.16;7246964;19;153567;-52
2022/12/07 07:20:32;;;;;;;;;;;;;;;21.29;44.17;102013.66;7243746;19;152296;-52
2022/12/07 07:22:59;;;;;;;;;;;;;;;21.33;43.67;102022.38;7244615;19;153773;-52
2022/12/07 07:25:26;;;;;;;;;;;;;;;21.36;43.59;102022.63;7246176;19;153764;-52
2022/12/07 07:27:53;;;;;;;;;;;;;;;21.39;43.33;102022.06;7244541;19;154118;-52
2022/12/07 07:30:19;;;;;;;;;;;;;;;21.41;42.71;102011.34;7244913;19;153599;-52
2022/12/07 07:32:46;;;;;;;;;;;;;;;21.45;43.03;102020.06;7242117;19;154036;-52
2022/12/07 07:35:13;;;;;;;;;;;;;;;21.47;42.37;102018.66;7252616;19;153161;-52
2022/12/07 07:37:40;;;;;;;;;;;;;;;21.50;42.63;102018.06;7241850;19;155407;-53
2022/12/07 07:40:08;;;;;;;;;;;;;;;21.52;42.47;102024.25;7245812;19;154301;-52
2022/12/07 07:42:35;;;;;;;;;;;;;;;21.56;42.33;102028.16;7244392;19;152774;-52
2022/12/07 07:45:02;;;;;;;;;;;;;;;21.58;41.84;102030.66;7249633;19;153495;-53
2022/12/07 07:47:28;;;;;;;;;;;;;;;21.61;41.99;102030.94;7249994;19;152156;-52
2022/12/07 07:49:55;;;;;;;;;;;;;;;21.64;41.63;102032.31;7253008;19;153409;-52
2022/12/07 07:52:31;;;;;;;;;;;;;;;21.69;41.33;102033.16;7248260;19;153269;-54
2022/12/07 07:54:58;;;;;;;;;;;;;;;21.71;40.68;102033.69;7252830;19;153941;-55
2022/12/07 07:57:24;;;;;;;;;;;;;;;21.79;39.90;102037.03;7259986;19;154315;-53
2022/12/07 07:59:51;;;;;;;;;;;;;;;21.78;37.83;102040.97;7245468;19;153829;-53
2022/12/07 08:02:29;;;;;;;;;;;;;;;21.73;36.73;102034.25;7250623;19;153837;-53
2022/12/07 08:04:56;;;;;;;;;;;;;;;21.67;36.86;102029.78;7241220;19;153866;-53
2022/12/07 08:07:23;;;;;;;;;;;;;;;21.67;37.10;102035.41;7246148;19;153670;-53
2022/12/07 08:09:49;;;;;;;;;;;;;;;21.67;37.15;102034.56;7253171;19;153493;-53
2022/12/07 08:12:16;;;;;;;;;;;;;;;21.66;37.22;102035.72;7253343;19;153832;-54
2022/12/07 08:14:43;;;;;;;;;;;;;;;21.63;37.30;102034.28;7248556;19;154850;-53
2022/12/07 08:17:09;;;;;;;;;;;;;;;21.62;36.92;102037.41;7252432;19;152803;-53
2022/12/07 08:19:36;;;;;;;;;;;;;;;21.60;36.67;102040.50;7258725;19;154705;-52
2022/12/07 08:22:03;;;;;;;;;;;;;;;21.58;36.82;102034.31;7247880;19;153960;-52
2022/12/07 08:24:30;;;;;;;;;;;;;;;21.56;36.99;102030.13;7252708;19;153829;-53
2022/12/07 08:26:56;;;;;;;;;;;;;;;21.53;36.70;102037.16;7250174;19;154312;-53
2022/12/07 08:29:23;;;;;;;;;;;;;;;21.52;37.00;102037.47;7251350;19;153352;-52
2022/12/07 08:31:50;;;;;;;;;;;;;;;21.49;36.55;102035.22;7253235;19;154066;-52
2022/12/07 08:34:17;;;;;;;;;;;;;;;21.48;37.63;102027.94;7251537;19;152995;-53
2022/12/07 08:36:43;;;;;;;;;;;;;;;21.46;38.03;102022.59;7245846;19;154158;-52
2022/12/07 08:39:10;;;;;;;;;;;;;;;21.49;38.02;102027.63;7260112;19;152752;-52
2022/12/07 08:41:57;;;;;;;;;;;;;;;21.48;37.52;102031.59;7251319;19;152625;-52
2022/12/07 08:44:23;;;;;;;;;;;;;;;21.48;37.83;102027.94;7252658;19;153875;-53
2022/12/07 08:46:56;;;;;;;;;;;;;;;21.46;37.70;102024.53;7249059;19;153592;-52
2022/12/07 08:49:31;;;;;;;;;;;;;;;21.46;37.65;102025.41;7253352;19;152670;-55
2022/12/07 08:51:57;;;;;;;;;;;;;;;21.46;38.01;102022.59;7250195;19;153419;-52
2022/12/07 08:54:24;;;;;;;;;;;;;;;21.46;37.65;102030.16;7251095;19;153335;-53
2022/12/07 08:56:51;;;;;;;;;;;;;;;21.47;37.99;102027.09;7248690;19;154362;-52
2022/12/07 08:59:25;;;;;;;;;;;;;;;21.48;37.77;102031.59;7254073;19;154272;-53
2022/12/07 09:01:52;;;;;;;;;;;;;;;21.48;37.94;102031.59;7256238;19;154383;-54
2022/12/07 09:04:20;;;;;;;;;;;;;;;21.49;37.93;102032.41;7252592;19;156056;-52
2022/12/07 09:06:47;;;;;;;;;;;;;;;21.49;37.74;102022.00;7247975;19;153819;-52
2022/12/07 09:09:14;;;;;;;;;;;;;;;21.50;37.82;102017.22;7253145;19;152536;-53
2022/12/07 09:11:41;;;;;;;;;;;;;;;21.50;37.67;102012.44;7250050;19;153116;-53
2022/12/07 09:14:07;;;;;;;;;;;;;;;21.50;37.64;102014.41;7247123;19;154330;-52
2022/12/07 09:16:34;;;;;;;;;;;;;;;21.51;37.68;102013.28;7248854;19;153942;-53
2022/12/07 09:19:01;;;;;;;;;;;;;;;21.51;37.26;102014.13;7247377;19;153672;-53
2022/12/07 09:21:28;;;;;;;;;;;;;;;21.52;37.17;102017.78;7246875;19;154354;-53
2022/12/07 09:23:54;;;;;;;;;;;;;;;21.52;37.04;102018.63;7258775;19;153726;-53
2022/12/07 09:26:21;;;;;;;;;;;;;;;21.52;36.87;102010.19;7247956;19;153525;-53
2022/12/07 09:28:48;;;;;;;;;;;;;;;21.52;37.13;102015.81;7251460;19;152912;-53
2022/12/07 09:31:14;;;;;;;;;;;;;;;21.52;36.75;102014.97;7251699;19;153992;-53
2022/12/07 09:33:55;;;;;;;;;;;;;;;21.52;37.12;102014.97;7251041;19;154690;-53
2022/12/07 09:36:22;;;;;;;;;;;;;;;21.50;36.95;102014.41;7248313;19;152555;-54
2022/12/07 09:38:48;;;;;;;;;;;;;;;21.51;36.58;102013.28;7250893;19;154262;-54
2022/12/07 09:41:16;;;;;;;;;;;;;;;21.51;36.57;102002.88;7249043;19;153929;-53
2022/12/07 09:43:43;;;;;;;;;;;;;;;21.50;36.34;102009.63;7249176;19;151925;-53
2022/12/07 09:46:13;;;;;;;;;;;;;;;21.50;36.18;102003.16;7253375;19;153510;-53
2022/12/07 09:48:40;;;;;;;;;;;;;;;21.49;36.28;102007.94;7250489;19;153079;-53
2022/12/07 09:51:14;;;;;;;;;;;;;;;21.48;35.94;102008.25;7246187;19;153568;-53
2022/12/07 09:53:49;;;;;;;;;;;;;;;21.47;36.18;102007.41;7247082;19;155134;-53
2022/12/07 09:56:17;;;;;;;;;;;;;;;21.46;36.26;102010.50;7250640;19;152852;-53
2022/12/07 09:58:44;;;;;;;;;;;;;;;21.46;35.87;102010.50;7248196;19;153616;-53
2022/12/07 10:01:15;;;;;;;;;;;;;;;21.44;35.77;102004.34;7247816;19;153965;-54
2022/12/07 10:03:52;;;;;;;;;;;;;;;21.42;36.18;102006.56;7248276;19;153873;-53
2022/12/07 10:06:19;;;;;;;;;;;;;;;21.40;35.77;102009.66;7243439;19;154311;-53
2022/12/07 10:08:46;;;;;;;;;;;;;;;21.39;35.62;102010.81;7255211;19;154252;-53
2022/12/07 10:11:14;;;;;;;;;;;;;;;21.37;35.70;102003.78;7250330;19;153722;-53
2022/12/07 10:13:47;;;;;;;;;;;;;;;21.35;35.60;101998.44;7245496;19;154318;-53
2022/12/07 10:16:33;;;;;;;;;;;;;;;21.35;35.66;102003.25;7245401;19;153051;-53
2022/12/07 10:19:18;;;;;;;;;;;;;;;21.32;35.86;101990.59;7247546;19;154406;-53
2022/12/07 10:22:03;;;;;;;;;;;;;;;21.30;35.52;101990.06;7242144;19;153992;-53
2022/12/07 10:24:30;;;;;;;;;;;;;;;21.28;36.03;101987.53;7248527;19;152503;-53
2022/12/07 10:26:56;;;;;;;;;;;;;;;21.27;35.54;101979.38;7246169;19;154972;-53
2022/12/07 10:29:31;;;;;;;;;;;;;;;21.24;35.70;101977.16;7248704;19;153654;-53
2022/12/07 10:31:59;;;;;;;;;;;;;;;21.22;36.06;101969.00;7254896;19;153320;-53
2022/12/07 10:34:28;;;;;;;;;;;;;;;21.19;35.90;101965.94;7248132;19;154315;-53
2022/12/07 10:37:16;;;;;;;;;;;;;;;21.19;36.03;101961.16;7245551;19;152742;-53
2022/12/07 10:39:48;;;;;;;;;;;;;;;21.17;35.88;101960.59;7249789;19;153389;-53
2022/12/07 10:42:24;;;;;;;;;;;;;;;21.13;35.60;101965.09;7246535;19;152857;-53
2022/12/07 10:45:26;;;;;;;;;;;;;;;21.12;35.75;101954.94;7247078;19;153409;-53
2022/12/07 10:47:55;;;;;;;;;;;;;;;21.09;35.63;101949.06;7243611;19;152891;-53
2022/12/07 10:50:48;;;;;;;;;;;;;;;21.07;35.96;101946.56;7247228;19;154689;-53
2022/12/07 10:53:33;;;;;;;;;;;;;;;21.04;35.80;101949.94;7253198;19;153387;-53
2022/12/07 10:56:15;;;;;;;;;;;;;;;21.02;35.88;101949.41;7246337;19;154102;-53
2022/12/07 10:58:45;;;;;;;;;;;;;;;20.99;35.81;101958.38;7249164;19;152955;-53
2022/12/07 11:01:27;;;;;;;;;;;;;;;20.97;35.70;101957.00;7245160;19;152288;-53
2022/12/07 11:04:12;;;;;;;;;;;;;;;20.94;35.95;101952.78;7245922;19;154536;-53
2022/12/07 11:06:44;;;;;;;;;;;;;;;20.94;36.14;101951.97;7241970;19;152504;-53
2022/12/07 11:09:40;;;;;;;;;;;;;;;20.90;36.09;101945.22;7247901;19;154133;-53
2022/12/07 11:12:51;;;;;;;;;;;;;;;20.88;35.97;101937.09;7169113;19;157231;-53
2022/12/07 11:15:24;;;;;;;;;;;;;;;20.83;36.20;101935.13;7232451;19;155479;-53
2022/12/07 11:18:12;;;;;;;;;;;;;;;20.81;36.06;101934.56;7245745;19;153731;-53
2022/12/07 11:20:39;;;;;;;;;;;;;;;20.80;36.39;101926.44;7236077;19;153117;-53
2022/12/07 11:23:32;;;;;;;;;;;;;;;20.79;36.28;101921.97;7239452;19;152724;-53
2022/12/07 11:26:18;;;;;;;;;;;;;;;20.80;36.65;101921.66;7241084;19;155777;-53
2022/12/07 11:28:58;;;;;;;;;;;;;;;20.80;36.81;101912.41;7242294;19;153515;-53
2022/12/07 11:31:25;;;;;;;;;;;;;;;20.80;36.63;101907.59;7241438;19;154437;-53
2022/12/07 11:34:00;;;;;;;;;;;;;;;20.82;37.21;101907.31;7241127;19;153402;-53
2022/12/07 11:36:41;;;;;;;;;;;;;;;20.83;36.80;101900.59;7237291;19;152528;-53
2022/12/07 11:39:11;;;;;;;;;;;;;;;20.83;37.14;101901.44;7242840;19;154461;-52
2022/12/07 11:41:40;;;;;;;;;;;;;;;20.84;37.11;101900.31;7247470;19;155255;-52
2022/12/07 11:44:17;;;;;;;;;;;;;;;20.86;37.02;101898.03;7241591;19;153270;-53
2022/12/07 11:46:57;;;;;;;;;;;;;;;20.88;37.41;101894.94;7235422;19;154044;-53
2022/12/07 11:49:35;;;;;;;;;;;;;;;20.91;37.05;101890.72;7238881;19;152414;-52
2022/12/07 11:52:03;;;;;;;;;;;;;;;20.92;37.32;101889.59;7235740;19;154125;-53
2022/12/07 11:54:35;;;;;;;;;;;;;;;20.95;37.03;101886.19;7242937;19;154036;-53
2022/12/07 11:57:04;;;;;;;;;;;;;;;20.96;37.45;101891.53;7243604;19;153150;-53
2022/12/07 11:59:36;;;;;;;;;;;;;;;20.98;37.10;101889.28;7245369;19;153541;-52
2022/12/07 12:02:30;;;;;;;;;;;;;;;21.00;37.13;101877.75;7229920;19;153949;-52
2022/12/07 12:05:17;;;;;;;;;;;;;;;21.03;37.52;101889.25;7252393;19;153168;-53
2022/12/07 12:07:46;;;;;;;;;;;;;;;21.06;37.35;101874.63;7240060;19;154688;-53
2022/12/07 12:10:41;;;;;;;;;;;;;;;21.08;37.26;101863.94;7243150;19;154030;-53
2022/12/07 12:13:08;;;;;;;;;;;;;;;21.10;37.21;101856.06;7243359;19;152956;-53
2022/12/07 12:15:59;;;;;;;;;;;;;;;21.14;37.16;101848.75;7238881;19;154195;-53
2022/12/07 12:18:31;;;;;;;;;;;;;;;21.16;36.96;101840.88;7243700;19;153457;-53
2022/12/07 12:21:02;;;;;;;;;;;;;;;21.18;36.95;101834.97;7240646;19;153030;-53
2022/12/07 12:23:53;;;;;;;;;;;;;;;21.20;36.99;101838.31;7242681;19;153773;-55
2022/12/07 12:26:28;;;;;;;;;;;;;;;21.22;36.73;101834.09;7241169;19;152088;-53
2022/12/07 12:29:05;;;;;;;;;;;;;;;21.24;37.07;101833.78;7246936;19;153506;-53
2022/12/07 12:31:36;;;;;;;;;;;;;;;21.26;36.64;101831.53;7247268;19;152900;-53
2022/12/07 12:34:05;;;;;;;;;;;;;;;21.27;36.94;101827.59;7252630;19;152312;-53
2022/12/07 12:36:42;;;;;;;;;;;;;;;21.29;36.35;101825.34;7246381;19;153747;-53
2022/12/07 12:39:14;;;;;;;;;;;;;;;21.30;36.30;101827.03;7247825;19;152507;-53
2022/12/07 12:42:05;;;;;;;;;;;;;;;21.30;36.30;101810.97;7250439;19;153903;-53
2022/12/07 12:44:33;;;;;;;;;;;;;;;21.32;36.48;101810.69;7251251;19;154099;-54
2022/12/07 12:47:02;;;;;;;;;;;;;;;21.33;36.18;101815.19;7247439;19;155849;-53
2022/12/07 12:49:28;;;;;;;;;;;;;;;21.34;36.36;101807.59;7249460;19;154489;-53
2022/12/07 12:51:55;;;;;;;;;;;;;;;21.33;36.17;101798.31;7251531;19;153828;-54
2022/12/07 12:54:21;;;;;;;;;;;;;;;21.34;36.04;101808.44;7250947;19;153269;-53